createdAt,value
2022-11-23T00:02:24.672Z,3.90
2022-11-23T00:05:31.113Z,3.90
2022-11-23T00:08:34.102Z,3.90
2022-11-23T00:11:37.364Z,4.00
2022-11-23T00:14:40.328Z,3.90
2022-11-23T00:17:43.302Z,4.00
2022-11-23T00:20:47.605Z,4.00
2022-11-23T00:23:51.185Z,4.00
2022-11-23T00:26:54.123Z,3.90
2022-11-23T00:29:57.071Z,4.00
2022-11-23T00:33:00.101Z,4.00
2022-11-23T00:36:07.083Z,4.00
2022-11-23T00:39:10.036Z,4.10
2022-11-23T00:42:12.972Z,4.00
2022-11-23T00:45:16.061Z,4.00
2022-11-23T00:48:19.042Z,4.00
2022-11-23T00:51:25.635Z,4.00
2022-11-23T00:54:28.572Z,4.10
2022-11-23T00:57:31.523Z,4.10
2022-11-23T01:00:34.500Z,4.10
2022-11-23T01:03:38.771Z,4.10
2022-11-23T01:06:43.069Z,4.10
2022-11-23T01:09:46.040Z,4.10
2022-11-23T01:12:48.972Z,4.20
2022-11-23T01:15:52.395Z,4.10
2022-11-23T01:18:56.230Z,4.10
2022-11-23T01:22:00.533Z,4.10
2022-11-23T01:25:03.621Z,4.00
2022-11-23T01:28:06.658Z,4.10
2022-11-23T01:31:11.791Z,4.10
2022-11-23T01:34:15.229Z,4.20
2022-11-23T01:37:19.513Z,4.20
2022-11-23T01:40:22.950Z,4.20
2022-11-23T01:43:25.962Z,4.20
2022-11-23T01:46:28.911Z,4.30
2022-11-23T01:49:36.797Z,4.30
2022-11-23T01:52:41.088Z,4.30
2022-11-23T01:55:44.939Z,4.30
2022-11-23T01:58:50.966Z,4.20
2022-11-23T02:01:54.083Z,4.20
2022-11-23T02:05:00.045Z,4.10
2022-11-23T02:08:05.140Z,4.20
2022-11-23T02:11:08.499Z,4.20
2022-11-23T02:14:11.671Z,4.20
2022-11-23T02:17:14.964Z,4.20
2022-11-23T02:20:19.681Z,4.20
2022-11-23T02:23:33.817Z,4.30
2022-11-23T02:26:38.324Z,4.40
2022-11-23T02:29:41.573Z,4.40
2022-11-23T02:32:44.992Z,4.30
2022-11-23T02:35:50.495Z,4.40
2022-11-23T02:38:54.566Z,4.40
2022-11-23T02:41:59.797Z,4.50
2022-11-23T02:45:15.093Z,4.60
2022-11-23T02:48:18.081Z,4.50
2022-11-23T02:51:21.028Z,4.50
2022-11-23T02:54:24.095Z,4.50
2022-11-23T02:57:28.394Z,4.50
2022-11-23T03:00:31.724Z,4.50
2022-11-23T03:03:34.895Z,4.50
2022-11-23T03:06:37.939Z,4.60
2022-11-23T03:09:41.207Z,4.50
2022-11-23T03:12:45.520Z,4.60
2022-11-23T03:15:48.480Z,4.60
2022-11-23T03:18:51.993Z,4.70
2022-11-23T03:21:54.940Z,4.70
2022-11-23T03:24:58.810Z,4.70
2022-11-23T03:28:03.117Z,4.70
2022-11-23T03:31:06.417Z,4.70
2022-11-23T03:34:10.742Z,4.70
2022-11-23T03:37:13.688Z,4.70
2022-11-23T03:40:16.863Z,4.80
2022-11-23T03:43:21.422Z,4.90
2022-11-23T03:46:24.389Z,4.80
2022-11-23T03:49:27.315Z,4.80
2022-11-23T03:52:30.252Z,4.70
2022-11-23T03:55:33.692Z,4.80
2022-11-23T03:58:37.980Z,4.80
2022-11-23T04:01:40.944Z,4.80
2022-11-23T04:04:43.909Z,4.90
2022-11-23T04:07:48.041Z,5.00
2022-11-23T04:10:51.061Z,5.00
2022-11-23T04:13:55.348Z,5.00
2022-11-23T04:16:58.498Z,5.00
2022-11-23T04:20:01.431Z,5.00
2022-11-23T04:23:07.137Z,5.10
2022-11-23T04:26:13.389Z,5.10
2022-11-23T04:29:17.706Z,5.10
2022-11-23T04:32:20.731Z,5.00
2022-11-23T04:35:23.905Z,5.10
2022-11-23T04:38:26.864Z,5.10
2022-11-23T04:41:29.819Z,5.20
2022-11-23T04:44:34.149Z,5.20
2022-11-23T04:47:37.077Z,5.30
2022-11-23T04:50:42.420Z,5.20
2022-11-23T04:53:46.699Z,5.10
2022-11-23T04:56:49.732Z,5.10
2022-11-23T04:59:54.050Z,5.20
2022-11-23T05:02:59.548Z,5.20
2022-11-23T05:06:02.589Z,5.20
2022-11-23T05:09:05.572Z,5.20
2022-11-23T05:12:08.850Z,5.20
2022-11-23T05:15:14.291Z,5.20
2022-11-23T05:18:17.274Z,5.30
2022-11-23T05:21:20.249Z,5.20
2022-11-23T05:24:23.165Z,5.30
2022-11-23T05:27:26.162Z,5.30
2022-11-23T05:30:30.489Z,5.40
2022-11-23T05:33:33.510Z,5.30
2022-11-23T05:36:40.811Z,5.30
2022-11-23T05:39:45.091Z,5.20
2022-11-23T05:42:48.038Z,5.30
2022-11-23T05:45:52.317Z,5.30
2022-11-23T05:48:55.298Z,5.30
2022-11-23T05:51:58.421Z,5.30
2022-11-23T05:55:01.342Z,5.10
2022-11-23T05:58:04.366Z,5.10
2022-11-23T06:01:08.748Z,5.10
2022-11-23T06:04:11.719Z,5.10
2022-11-23T06:07:14.766Z,5.20
2022-11-23T06:10:17.821Z,5.30
2022-11-23T06:13:20.830Z,5.30
2022-11-23T06:16:25.624Z,5.30
2022-11-23T06:19:30.332Z,5.30
2022-11-23T06:22:33.725Z,5.30
2022-11-23T06:25:38.598Z,5.20
2022-11-23T06:28:41.607Z,5.20
2022-11-23T06:31:46.286Z,5.20
2022-11-23T06:34:49.198Z,5.30
2022-11-23T06:37:53.650Z,5.30
2022-11-23T06:40:59.707Z,5.30
2022-11-23T06:44:02.689Z,5.40
2022-11-23T06:47:07.028Z,5.30
2022-11-23T06:50:10.256Z,5.30
2022-11-23T06:53:13.220Z,5.30
2022-11-23T06:56:16.153Z,5.40
2022-11-23T06:59:19.101Z,5.40
2022-11-23T07:02:23.390Z,5.40
2022-11-23T07:05:26.382Z,5.40
2022-11-23T07:08:29.315Z,5.40
2022-11-23T07:11:32.246Z,5.50
2022-11-23T07:14:35.225Z,5.50
2022-11-23T07:17:41.927Z,5.50
2022-11-23T07:20:44.956Z,5.50
2022-11-23T07:23:47.902Z,5.60
2022-11-23T07:26:51.445Z,5.50
2022-11-23T07:29:54.392Z,5.30
2022-11-23T07:33:02.382Z,5.40
2022-11-23T07:36:05.717Z,5.40
2022-11-23T07:39:08.824Z,5.50
2022-11-23T07:42:31.518Z,5.40
2022-11-23T07:45:36.724Z,5.40
2022-11-23T07:48:41.036Z,5.40
2022-11-23T07:51:44.042Z,5.50
2022-11-23T07:54:47.182Z,5.50
2022-11-23T07:57:53.213Z,5.50
2022-11-23T08:00:56.321Z,5.60
2022-11-23T08:04:00.689Z,5.70
2022-11-23T08:07:03.954Z,5.60
2022-11-23T08:10:07.561Z,5.80
2022-11-23T08:13:10.515Z,5.80
2022-11-23T08:16:13.510Z,5.90
2022-11-23T08:19:18.082Z,6.00
2022-11-23T08:22:21.264Z,6.10
2022-11-23T08:25:24.447Z,6.10
2022-11-23T08:28:27.608Z,6.20
2022-11-23T08:31:30.665Z,6.20
2022-11-23T08:34:35.218Z,6.30
2022-11-23T08:37:38.239Z,6.20
2022-11-23T08:40:41.412Z,6.30
2022-11-23T08:43:44.329Z,6.40
2022-11-23T08:46:47.325Z,6.40
2022-11-23T08:49:51.613Z,6.50
2022-11-23T08:52:56.828Z,6.50
2022-11-23T08:56:01.713Z,6.50
2022-11-23T08:59:04.823Z,6.50
2022-11-23T09:02:07.829Z,6.50
2022-11-23T09:05:12.170Z,6.60
2022-11-23T09:08:16.408Z,6.60
2022-11-23T09:11:19.398Z,6.60
2022-11-23T09:14:23.270Z,6.70
2022-11-23T09:17:26.211Z,6.80
2022-11-23T09:20:30.703Z,6.80
2022-11-23T09:23:34.134Z,6.90
2022-11-23T09:26:37.639Z,7.10
2022-11-23T09:29:40.654Z,7.20
2022-11-23T09:32:43.768Z,7.40
2022-11-23T09:35:48.105Z,7.50
2022-11-23T09:38:56.623Z,7.40
2022-11-23T09:42:17.916Z,7.40
2022-11-23T09:45:28.346Z,7.50
2022-11-23T09:48:46.165Z,7.50
2022-11-23T09:51:55.880Z,7.60
2022-11-23T09:55:05.941Z,7.80
2022-11-23T09:58:14.708Z,7.80
2022-11-23T10:01:17.988Z,7.90
2022-11-23T10:04:21.637Z,8.00
2022-11-23T10:07:43.701Z,8.10
2022-11-23T10:10:54.917Z,8.20
2022-11-23T10:14:09.106Z,8.30
2022-11-23T10:17:23.309Z,8.40
2022-11-23T10:20:46.890Z,8.40
2022-11-23T10:23:56.628Z,8.30
2022-11-23T10:26:59.753Z,8.40
2022-11-23T10:30:02.904Z,8.50
2022-11-23T10:33:14.793Z,8.60
2022-11-23T10:36:17.759Z,8.60
2022-11-23T10:39:24.725Z,8.70
2022-11-23T10:42:33.438Z,8.80
2022-11-23T10:45:37.495Z,8.90
2022-11-23T10:48:40.424Z,8.90
2022-11-23T10:51:51.281Z,8.90
2022-11-23T10:54:57.297Z,9.00
2022-11-23T10:58:00.932Z,9.00
2022-11-23T11:01:06.041Z,9.10
2022-11-23T11:04:25.666Z,9.10
2022-11-23T11:07:30.634Z,9.10
2022-11-23T11:10:41.166Z,9.10
2022-11-23T11:13:46.813Z,8.90
2022-11-23T11:16:51.506Z,8.80
2022-11-23T11:19:54.619Z,8.80
2022-11-23T11:22:58.954Z,8.80
2022-11-23T11:26:10.971Z,8.90
2022-11-23T11:29:36.837Z,9.00
2022-11-23T11:32:46.581Z,9.00
2022-11-23T11:35:52.952Z,8.90
2022-11-23T11:39:17.581Z,8.90
2022-11-23T11:42:31.309Z,8.90
2022-11-23T11:45:39.041Z,9.00
2022-11-23T11:48:46.914Z,9.20
2022-11-23T11:51:55.455Z,9.20
2022-11-23T11:55:06.395Z,9.20
2022-11-23T11:58:14.403Z,9.20
2022-11-23T12:01:26.211Z,9.20
2022-11-23T12:04:38.319Z,9.30
2022-11-23T12:07:50.134Z,9.30
2022-11-23T12:10:55.230Z,9.40
2022-11-23T12:14:02.870Z,9.50
2022-11-23T12:17:39.721Z,9.60
2022-11-23T12:20:43.983Z,10.20
2022-11-23T12:23:56.958Z,10.70
2022-11-23T12:27:07.799Z,10.80
2022-11-23T12:30:26.100Z,10.80
2022-11-23T12:33:49.119Z,10.50
2022-11-23T12:37:05.217Z,10.30
2022-11-23T12:40:21.555Z,11.40
2022-11-23T12:43:36.324Z,12.50
2022-11-23T12:46:48.265Z,13.60
2022-11-23T12:49:56.046Z,13.30
2022-11-23T12:53:20.331Z,12.70
2022-11-23T12:56:44.934Z,12.10
2022-11-23T12:59:53.450Z,11.60
2022-11-23T13:03:26.732Z,11.10
2022-11-23T13:10:41.439Z,10.50
2022-11-23T13:14:02.373Z,10.40
2022-11-23T13:17:17.592Z,10.40
2022-11-23T13:20:49.846Z,10.30
2022-11-23T13:23:52.939Z,10.10
2022-11-23T13:27:41.352Z,10.00
2022-11-23T13:31:14.662Z,10.10
2022-11-23T13:34:45.015Z,10.00
2022-11-23T13:38:19.813Z,10.00
2022-11-23T13:42:05.094Z,10.00
2022-11-23T13:45:27.128Z,9.90
2022-11-23T13:52:07.117Z,9.80
2022-11-23T13:55:34.261Z,9.80
2022-11-23T13:58:41.321Z,9.90
2022-11-23T14:02:19.206Z,10.00
2022-11-23T14:05:56.914Z,10.00
2022-11-23T14:09:05.705Z,9.90
2022-11-23T14:12:18.689Z,9.90
2022-11-23T14:15:23.369Z,10.00
2022-11-23T14:18:43.947Z,10.00
2022-11-23T14:21:57.665Z,9.90
2022-11-23T14:25:18.134Z,9.80
2022-11-23T14:28:35.077Z,9.70
2022-11-23T14:31:50.333Z,9.70
2022-11-23T14:35:05.428Z,9.60
2022-11-23T14:38:42.319Z,9.70
2022-11-23T14:41:50.885Z,9.70
2022-11-23T14:44:57.029Z,9.70
2022-11-23T14:48:21.287Z,9.60
2022-11-23T14:51:26.460Z,9.50
2022-11-23T14:54:31.018Z,9.50
2022-11-23T14:57:41.637Z,9.40
2022-11-23T15:00:47.947Z,9.30
2022-11-23T15:03:58.494Z,9.30
2022-11-23T15:07:05.164Z,9.00
2022-11-23T15:10:18.929Z,9.10
2022-11-23T15:13:24.219Z,9.00
2022-11-23T15:16:28.689Z,8.90
2022-11-23T15:19:31.649Z,8.80
2022-11-23T15:22:36.986Z,8.70
2022-11-23T15:25:50.746Z,8.60
2022-11-23T15:28:53.744Z,8.60
2022-11-23T15:32:22.334Z,8.50
2022-11-23T15:35:24.058Z,8.40
2022-11-23T15:38:27.533Z,8.30
2022-11-23T15:41:31.781Z,8.20
2022-11-23T15:44:35.756Z,8.20
2022-11-23T15:47:40.099Z,8.10
2022-11-23T15:50:49.361Z,8.00
2022-11-23T15:53:53.753Z,8.00
2022-11-23T15:56:58.508Z,8.00
2022-11-23T16:00:03.632Z,7.80
2022-11-23T16:03:31.576Z,7.90
2022-11-23T16:06:39.372Z,7.70
2022-11-23T16:09:52.763Z,7.70
2022-11-23T16:12:58.152Z,7.60
2022-11-23T16:16:02.267Z,7.50
2022-11-23T16:19:20.645Z,7.60
2022-11-23T16:22:29.001Z,7.50
2022-11-23T16:25:34.084Z,7.50
2022-11-23T16:28:39.873Z,7.40
2022-11-23T16:31:52.455Z,7.30
2022-11-23T16:34:59.617Z,7.30
2022-11-23T16:38:02.602Z,7.30
2022-11-23T16:41:05.551Z,7.20
2022-11-23T16:44:08.543Z,7.30
2022-11-23T16:47:30.528Z,7.30
2022-11-23T16:50:35.516Z,7.20
2022-11-23T16:54:11.431Z,7.10
2022-11-23T16:57:01.925Z,7.10
2022-11-23T17:00:08.011Z,7.00
2022-11-23T17:03:13.803Z,7.20
2022-11-23T17:06:22.848Z,7.20
2022-11-23T17:09:25.788Z,7.20
2022-11-23T17:12:28.782Z,7.20
2022-11-23T17:15:31.801Z,7.10
2022-11-23T17:18:34.757Z,7.10
2022-11-23T17:21:39.162Z,7.00
2022-11-23T17:24:42.520Z,7.00
2022-11-23T17:27:46.493Z,7.00
2022-11-23T17:30:50.246Z,7.00
2022-11-23T17:33:53.221Z,6.90
2022-11-23T17:36:57.534Z,6.90
2022-11-23T17:40:00.494Z,6.90
2022-11-23T17:43:03.450Z,6.80
2022-11-23T17:46:06.970Z,6.80
2022-11-23T17:49:12.878Z,6.80
2022-11-23T17:52:17.237Z,6.90
2022-11-23T17:55:20.144Z,6.90
2022-11-23T17:58:23.082Z,6.80
2022-11-23T18:01:26.060Z,6.70
2022-11-23T18:04:29.086Z,6.70
2022-11-23T18:07:33.433Z,6.60
2022-11-23T18:10:36.419Z,6.60
2022-11-23T18:13:40.500Z,6.50
2022-11-23T18:16:43.404Z,6.60
2022-11-23T18:19:46.421Z,6.70
2022-11-23T18:22:50.742Z,6.60
2022-11-23T18:25:59.605Z,6.60
2022-11-23T18:29:03.113Z,6.50
2022-11-23T18:32:06.641Z,6.50
2022-11-23T18:35:10.664Z,6.60
2022-11-23T18:38:15.007Z,6.60
2022-11-23T18:41:18.245Z,6.50
2022-11-23T18:44:21.217Z,6.50
2022-11-23T18:47:24.183Z,6.50
2022-11-23T18:50:27.324Z,6.40
2022-11-23T18:53:33.161Z,6.40
2022-11-23T18:56:36.137Z,6.40
2022-11-23T18:59:57.445Z,6.40
2022-11-23T19:03:02.629Z,6.30
2022-11-23T19:06:06.963Z,6.30
2022-11-23T19:09:14.304Z,6.30
2022-11-23T19:12:17.515Z,6.20
2022-11-23T19:15:20.655Z,6.30
2022-11-23T19:18:23.637Z,6.30
2022-11-23T19:21:28.231Z,6.30
2022-11-23T19:24:32.493Z,6.30
2022-11-23T19:27:36.876Z,6.20
2022-11-23T19:30:39.834Z,6.20
2022-11-23T19:33:42.829Z,6.20
2022-11-23T19:36:45.863Z,6.20
2022-11-23T19:39:50.200Z,6.20
2022-11-23T19:42:53.116Z,6.10
2022-11-23T19:45:56.478Z,6.10
2022-11-23T19:48:59.841Z,6.00
2022-11-23T19:52:03.622Z,6.00
2022-11-23T19:55:09.070Z,6.00
2022-11-23T19:58:12.018Z,6.00
2022-11-23T20:01:16.789Z,6.00
2022-11-23T20:04:20.110Z,5.90
2022-11-23T20:07:23.147Z,6.00
2022-11-23T20:10:27.549Z,6.00
2022-11-23T20:13:30.843Z,5.90
2022-11-23T20:16:34.302Z,5.90
2022-11-23T20:19:37.327Z,5.90
2022-11-23T20:22:40.290Z,5.90
2022-11-23T20:25:44.830Z,5.90
2022-11-23T20:28:51.824Z,6.00
2022-11-23T20:31:54.894Z,5.80
2022-11-23T20:34:57.906Z,5.80
2022-11-23T20:38:00.877Z,5.80
2022-11-23T20:41:13.976Z,5.80
2022-11-23T20:44:16.985Z,5.70
2022-11-23T20:47:20.029Z,5.80
2022-11-23T20:50:25.111Z,5.80
2022-11-23T20:53:28.141Z,5.90
2022-11-23T20:56:32.963Z,5.90
2022-11-23T20:59:35.993Z,6.00
2022-11-23T21:02:39.018Z,5.90
2022-11-23T21:05:42.037Z,5.90
2022-11-23T21:08:46.970Z,5.90
2022-11-23T21:12:09.165Z,5.90
2022-11-23T21:15:12.419Z,5.80
2022-11-23T21:18:15.885Z,5.90
2022-11-23T21:21:18.820Z,5.80
2022-11-23T21:24:21.978Z,5.70
2022-11-23T21:27:28.154Z,5.80
2022-11-23T21:30:31.633Z,5.80
2022-11-23T21:33:34.765Z,5.80
2022-11-23T21:36:39.615Z,5.80
2022-11-23T21:39:44.600Z,5.90
2022-11-23T21:42:53.861Z,5.90
2022-11-23T21:46:00.934Z,5.90
2022-11-23T21:49:04.318Z,5.90
2022-11-23T21:52:09.013Z,5.90
2022-11-23T21:55:12.044Z,5.90
2022-11-23T21:58:16.317Z,5.90
2022-11-23T22:01:21.340Z,6.00
2022-11-23T22:04:24.757Z,6.00
2022-11-23T22:07:27.742Z,6.00
2022-11-23T22:10:31.054Z,6.10
2022-11-23T22:13:37.131Z,6.20
2022-11-23T22:16:41.804Z,6.20
2022-11-23T22:19:44.786Z,6.20
2022-11-23T22:22:47.864Z,6.30
2022-11-23T22:25:50.788Z,6.30
2022-11-23T22:28:56.009Z,6.30
2022-11-23T22:31:58.979Z,6.40
2022-11-23T22:35:01.952Z,6.40
2022-11-23T22:38:04.904Z,6.40
2022-11-23T22:41:09.642Z,6.40
2022-11-23T22:44:13.924Z,6.30
2022-11-23T22:47:16.938Z,6.40
2022-11-23T22:50:19.910Z,6.50
2022-11-23T22:53:22.917Z,6.40
2022-11-23T22:56:26.712Z,6.30
2022-11-23T22:59:31.044Z,6.30
2022-11-23T23:02:34.128Z,6.50
2022-11-23T23:05:37.170Z,6.60
2022-11-23T23:08:40.131Z,6.60
2022-11-23T23:11:43.122Z,6.60
2022-11-23T23:14:47.401Z,6.40
2022-11-23T23:17:50.393Z,6.40
2022-11-23T23:20:53.335Z,6.30
2022-11-23T23:23:59.110Z,6.40
2022-11-23T23:27:02.089Z,6.50
2022-11-23T23:30:07.447Z,6.50
2022-11-23T23:33:10.946Z,6.30
2022-11-23T23:36:16.201Z,6.30
2022-11-23T23:39:19.162Z,6.30
2022-11-23T23:42:22.114Z,6.40
2022-11-23T23:45:26.423Z,6.40
2022-11-23T23:48:30.773Z,6.30
2022-11-23T23:51:33.712Z,6.30
2022-11-23T23:54:36.714Z,6.20
2022-11-23T23:57:39.695Z,6.40
